createdAt,value
2023-04-24T06:38:06.002Z,16.90
2023-04-24T06:38:17.411Z,17.80
2023-04-24T06:38:27.385Z,17.80
2023-04-24T06:38:37.333Z,17.90
2023-04-24T06:38:47.522Z,18.00
2023-04-24T06:38:57.572Z,18.60
2023-04-24T06:39:07.817Z,19.40
2023-04-24T06:39:17.951Z,19.60
2023-04-24T06:39:28.046Z,20.30
2023-04-24T06:39:38.118Z,59.60
2023-04-24T06:39:48.327Z,86.50
2023-04-24T06:39:58.383Z,46.20
2023-04-24T06:40:08.722Z,39.30
2023-04-24T06:40:18.684Z,34.00
2023-04-24T06:40:28.774Z,31.20
2023-04-24T06:40:39.541Z,29.30
2023-04-24T06:40:49.102Z,27.80
2023-04-24T06:40:59.066Z,23.20
2023-04-24T06:41:09.329Z,22.20
2023-04-24T06:41:19.344Z,22.20
2023-04-24T06:41:29.492Z,22.50
2023-04-24T06:41:39.614Z,23.00
2023-04-24T06:41:49.698Z,23.30
2023-04-24T06:41:59.811Z,23.20
2023-04-24T06:42:09.938Z,22.90
2023-04-24T06:42:19.908Z,22.70
2023-04-24T06:42:30.141Z,22.40
2023-04-24T06:42:40.376Z,22.60
2023-04-24T06:42:50.339Z,23.00
2023-04-24T06:43:00.360Z,23.30
2023-04-24T06:43:10.555Z,23.30
2023-04-24T06:43:20.763Z,23.70
2023-04-24T06:43:31.836Z,23.80
2023-04-24T06:43:40.880Z,23.20
2023-04-24T06:43:51.084Z,23.00
2023-04-24T06:44:01.367Z,22.70
2023-04-24T06:44:11.390Z,22.50
2023-04-24T06:44:21.599Z,22.70
2023-04-24T06:44:41.879Z,22.90
2023-04-24T06:44:51.921Z,23.50
2023-04-24T06:45:02.080Z,23.70
2023-04-24T06:45:12.269Z,24.30
2023-04-24T06:45:22.278Z,24.30
2023-04-24T06:45:32.457Z,24.60
2023-04-24T06:45:42.593Z,24.30
2023-04-24T06:45:52.699Z,24.00
2023-04-24T06:46:02.877Z,24.40
2023-04-24T06:46:12.901Z,24.20
2023-04-24T06:46:23.056Z,24.00
2023-04-24T06:46:33.273Z,24.30
2023-04-24T06:46:43.291Z,25.30
2023-04-24T06:46:53.447Z,25.80
2023-04-24T06:47:03.585Z,25.40
2023-04-24T06:47:13.763Z,25.50
2023-04-24T06:47:23.822Z,25.60
2023-04-24T06:47:34.028Z,24.50
2023-04-24T06:47:44.224Z,23.70
2023-04-24T06:47:54.327Z,23.60
2023-04-24T06:48:04.462Z,24.00
2023-04-24T06:48:14.546Z,23.80
2023-04-24T06:48:24.538Z,23.90
2023-04-24T06:48:34.755Z,25.10
2023-04-24T06:48:44.789Z,24.90
2023-04-24T06:48:55.023Z,25.00
2023-04-24T06:49:05.091Z,24.70
2023-04-24T06:49:15.291Z,24.80
2023-04-24T06:49:25.284Z,24.80
2023-04-24T06:49:35.610Z,24.60
2023-04-24T06:49:45.677Z,24.80
2023-04-24T06:49:55.719Z,24.70
2023-04-24T06:50:05.941Z,25.40
2023-04-24T06:50:15.998Z,25.90
2023-04-24T06:50:26.009Z,26.50
2023-04-24T06:50:36.204Z,26.60
2023-04-24T06:50:46.237Z,26.90
2023-04-24T06:50:56.434Z,27.30
2023-04-24T06:51:06.500Z,27.40
2023-04-24T06:51:16.591Z,27.20
2023-04-24T06:51:26.702Z,26.70
2023-04-24T06:51:36.869Z,26.30
2023-04-24T06:51:47.019Z,26.10
2023-04-24T06:51:57.031Z,25.70
2023-04-24T06:52:07.126Z,25.50
2023-04-24T06:52:17.288Z,25.30
2023-04-24T06:52:27.379Z,25.40
2023-04-24T06:52:37.607Z,25.10
2023-04-24T06:52:47.704Z,25.40
2023-04-24T06:52:57.735Z,25.20
2023-04-24T06:53:07.844Z,24.60
2023-04-24T06:53:18.025Z,24.70
2023-04-24T06:53:28.143Z,24.40
2023-04-24T06:53:38.308Z,24.30
2023-04-24T06:53:49.490Z,24.50
2023-04-24T06:53:58.530Z,24.60
2023-04-24T06:54:08.651Z,25.00
2023-04-24T06:54:18.971Z,24.90
2023-04-24T06:54:29.108Z,24.80
2023-04-24T06:54:39.041Z,24.70
2023-04-24T06:54:49.211Z,23.70
2023-04-24T06:54:59.284Z,23.70
2023-04-24T06:55:09.287Z,23.30
2023-04-24T06:55:19.518Z,25.10
2023-04-24T06:55:29.607Z,25.60
2023-04-24T06:55:39.647Z,26.50
2023-04-24T06:55:49.751Z,27.20
2023-04-24T06:55:59.881Z,26.70
2023-04-24T06:56:10.007Z,27.20
2023-04-24T06:56:20.188Z,26.30
2023-04-24T06:56:30.293Z,26.00
2023-04-24T06:56:40.476Z,25.40
2023-04-24T06:56:50.377Z,25.20
2023-04-24T06:57:00.744Z,25.00
2023-04-24T06:57:10.746Z,24.90
2023-04-24T06:57:20.918Z,24.60
2023-04-24T06:57:31.050Z,24.60
2023-04-24T06:57:41.157Z,24.60
2023-04-24T06:57:51.293Z,24.70
2023-04-24T06:58:01.491Z,24.90
2023-04-24T06:58:11.613Z,24.70
2023-04-24T06:58:21.893Z,24.00
2023-04-24T06:58:31.810Z,23.50
2023-04-24T06:58:41.957Z,23.30
2023-04-24T06:58:52.512Z,23.80
2023-04-24T06:59:02.198Z,23.30
2023-04-24T06:59:12.197Z,22.60
2023-04-24T06:59:22.341Z,22.60
2023-04-24T06:59:32.446Z,22.90
2023-04-24T06:59:42.850Z,23.00
2023-04-24T06:59:52.779Z,22.80
2023-04-24T07:00:02.919Z,23.10
2023-04-24T07:00:12.923Z,24.20
2023-04-24T07:00:23.181Z,24.20
2023-04-24T07:00:33.379Z,24.50
2023-04-24T07:00:43.268Z,24.60
2023-04-24T07:00:53.405Z,24.00
2023-04-24T07:01:03.533Z,23.80
2023-04-24T07:01:13.696Z,23.90
2023-04-24T07:01:23.963Z,23.80
2023-04-24T07:01:33.873Z,24.00
2023-04-24T07:01:44.111Z,23.50
2023-04-24T07:01:55.563Z,24.00
2023-04-24T07:02:04.339Z,24.60
2023-04-24T07:02:14.485Z,24.20
2023-04-24T07:02:24.570Z,24.50
2023-04-24T07:02:34.772Z,24.20
2023-04-24T07:02:44.910Z,24.50
2023-04-24T07:02:54.939Z,24.40
2023-04-24T07:03:05.026Z,24.00
2023-04-24T07:03:15.213Z,24.30
2023-04-24T07:03:25.468Z,23.60
2023-04-24T07:03:35.670Z,23.80
2023-04-24T07:03:45.729Z,23.50
2023-04-24T07:03:55.883Z,23.10
2023-04-24T07:04:06.086Z,22.70
2023-04-24T07:04:16.065Z,22.40
2023-04-24T07:04:26.241Z,22.30
2023-04-24T07:04:36.231Z,21.70
2023-04-24T07:04:46.250Z,22.30
2023-04-24T07:04:56.426Z,22.10
2023-04-24T07:05:06.462Z,21.90
2023-04-24T07:05:16.663Z,21.50
2023-04-24T07:05:26.858Z,21.90
2023-04-24T07:05:36.802Z,22.50
2023-04-24T07:05:47.200Z,22.20
2023-04-24T07:05:57.963Z,22.90
2023-04-24T07:06:07.357Z,53.00
2023-04-24T07:06:17.443Z,39.20
2023-04-24T07:06:27.547Z,33.10
2023-04-24T07:06:37.733Z,30.70
2023-04-24T07:06:47.922Z,29.10
2023-04-24T07:07:08.950Z,24.60
2023-04-24T07:07:18.334Z,24.40
2023-04-24T07:07:28.458Z,24.80
2023-04-24T07:07:38.460Z,24.80
2023-04-24T07:07:48.736Z,24.70
2023-04-24T07:07:58.833Z,23.10
2023-04-24T07:08:19.106Z,21.70
2023-04-24T07:08:29.064Z,21.30
2023-04-24T07:08:39.295Z,21.50
2023-04-24T07:08:49.953Z,21.30
2023-04-24T07:08:59.601Z,20.90
2023-04-24T07:09:09.653Z,20.80
2023-04-24T07:09:19.880Z,21.10
2023-04-24T07:09:29.836Z,22.10
2023-04-24T07:09:40.059Z,21.60
2023-04-24T07:09:50.051Z,21.00
2023-04-24T07:10:00.200Z,20.80
2023-04-24T07:10:10.441Z,20.70
2023-04-24T07:10:20.544Z,21.00
2023-04-24T07:10:30.666Z,20.60
2023-04-24T07:10:40.679Z,20.40
2023-04-24T07:10:50.844Z,20.70
2023-04-24T07:11:01.015Z,21.00
2023-04-24T07:11:11.205Z,20.70
2023-04-24T07:11:21.285Z,20.00
2023-04-24T07:11:31.359Z,19.80
2023-04-24T07:11:41.510Z,20.30
2023-04-24T07:11:51.635Z,21.30
2023-04-24T07:12:01.717Z,22.60
2023-04-24T07:12:11.812Z,23.50
2023-04-24T07:12:22.006Z,24.10
2023-04-24T07:12:32.157Z,24.20
2023-04-24T07:12:42.251Z,25.10
2023-04-24T07:12:52.279Z,23.70
2023-04-24T07:13:02.571Z,22.90
2023-04-24T07:13:12.643Z,22.40
2023-04-24T07:13:22.840Z,22.20
2023-04-24T07:13:33.012Z,22.30
2023-04-24T07:13:43.335Z,21.50
2023-04-24T07:13:53.067Z,21.80
2023-04-24T07:14:03.246Z,21.40
2023-04-24T07:14:13.430Z,21.70
2023-04-24T07:14:23.582Z,21.30
2023-04-24T07:14:33.743Z,21.60
2023-04-24T07:14:43.931Z,22.20
2023-04-24T07:14:53.916Z,22.70
2023-04-24T07:15:03.952Z,22.60
2023-04-24T07:15:14.179Z,22.50
2023-04-24T07:15:24.237Z,22.00
2023-04-24T07:15:34.367Z,20.70
2023-04-24T07:15:44.415Z,19.40
2023-04-24T07:15:54.604Z,18.70
2023-04-24T07:16:04.712Z,18.30
2023-04-24T07:16:14.813Z,17.70
2023-04-24T07:16:25.028Z,17.60
2023-04-24T07:16:35.044Z,17.60
2023-04-24T07:26:21.218Z,40.70
2023-04-24T07:26:32.917Z,33.50
2023-04-24T07:26:42.449Z,29.70
2023-04-24T07:26:52.756Z,27.10
2023-04-24T07:27:02.771Z,21.50
2023-04-24T07:27:12.837Z,15.80
2023-04-24T07:27:23.066Z,14.10
2023-04-24T07:27:33.170Z,12.90
2023-04-24T07:27:43.423Z,11.90
2023-04-24T07:27:53.411Z,11.40
2023-04-24T07:28:03.620Z,11.10
2023-04-24T07:28:13.589Z,11.00
2023-04-24T07:28:23.804Z,11.40
2023-04-24T07:28:33.884Z,11.40
2023-04-24T07:28:44.085Z,11.50
2023-04-24T07:28:54.118Z,11.20
2023-04-24T07:29:04.320Z,11.00
2023-04-24T07:29:14.356Z,10.80
2023-04-24T07:29:24.485Z,11.20
2023-04-24T07:29:34.664Z,11.10
2023-04-24T07:29:45.174Z,10.60
2023-04-24T07:29:54.816Z,10.40
2023-04-24T07:30:04.936Z,10.80
2023-04-24T07:30:15.053Z,10.50
2023-04-24T07:30:25.188Z,10.40
2023-04-24T07:30:35.259Z,10.50
2023-04-24T07:30:45.510Z,11.00
2023-04-24T07:30:55.535Z,11.40
2023-04-24T07:31:05.682Z,10.60
2023-04-24T07:31:15.735Z,10.80
2023-04-24T07:31:25.974Z,9.90
2023-04-24T07:31:36.068Z,9.50
2023-04-24T07:31:46.241Z,9.20
2023-04-24T07:31:56.260Z,9.00
2023-04-24T07:32:06.525Z,9.20
2023-04-24T07:32:16.470Z,9.10
2023-04-24T07:32:26.657Z,9.50
2023-04-24T07:32:36.749Z,9.90
2023-04-24T07:32:46.914Z,10.10
2023-04-24T07:32:56.970Z,10.30
2023-04-24T07:33:07.170Z,10.80
2023-04-24T07:33:17.314Z,11.30
2023-04-24T07:33:27.959Z,12.10
2023-04-24T07:33:37.339Z,12.50
2023-04-24T07:33:47.472Z,13.20
2023-04-24T07:33:57.607Z,14.00
2023-04-24T07:34:08.004Z,14.40
